Hilo, Hawaii
Current Conditions -  °F | °C
As of 6:11 AM on Friday 21 Nov 2014 (Local Time) from PHTO Reporting Station
Heavy Rain Heavy Rain  
Wind Chill: 65°   Ceiling: 2500
Heat Index: 65°   Visibility: 3mi
Dew Point: 65°   Wind: 6mph
Humidity: 100%   Direction: 200°SSW
Pressure: 30.06"   Gusts: NA
Location:  19.72°N, 155.08°W
Report Text: PHTO 211611Z 20005KT 3SM +RA BR BKN025 OVC033 18/18 A3006 RMK AO2 P0003 T01830183 $
Loading
Personal Weather Stations






























Interactive Weather Map New forecast layout! Learn more

10-Day Weather Forecast

Advertisements
Track Severe Weather on mobile